Impacts METAR Board
IDs:

KSTL - St Louis/Lambert Int, MO, US

Updated at: 0300 UTC 23 May 2018
Potential Impact None Slight Moderate High
Time 22/15Z 22/16Z 22/17Z 22/18Z 22/19Z 22/20Z 22/21Z 22/22Z 22/23Z 23/00Z 23/01Z 23/02Z 23/03Z
Temp75 77 80 81 82 82 83 83 83 82 80 79 77
Dewpt63 64 63 64 65 64 63 64 63 63 63 63 63
Altim30.07 30.07 30.08 30.07 30.05 30.04 30.03 30.02 30.01 30.00 30.01 30.02 30.05
VIS10 10 10 10 10 10 10 10 10 10 10 10 10
CIG250 250 250 -- -- -- -- -- -- -- -- -- --
CoverBKNBKNBKNSCTSCTSCTSCTSCTSCTSCTSCTSCTFEW
FltCatVFRVFRVFRVFRVFRVFRVFRVFRVFRVFRVFRVFRVFR
WX--------------------------
WDir0103003103205035034033010504040
WSpd0 6 4 7 5 8 8 6 6 5 6 5 4
WGst-- -- -- -- -- -- -- -- -- -- -- -- --
Raw hourly METARs
KSTL 221451Z 00000KT 10SM FEW040 BKN250 24/17 A3007 RMK AO2 SLP173 T02390172 51012
KSTL 221551Z 01006KT 10SM FEW040 BKN250 25/18 A3007 RMK AO2 SLP172 T02500178
KSTL 221651Z 30004KT 10SM SCT030 BKN250 27/17 A3008 RMK AO2 SLP175 T02670172
KSTL 221751Z 31007KT 10SM FEW030 SCT250 27/18 A3007 RMK AO2 SLP171 T02720178 10272 20206 58001
KSTL 221851Z 32005KT 10SM FEW030 SCT250 28/18 A3005 RMK AO2 SLP165 T02780183
KSTL 221951Z 05008KT 10SM FEW040 SCT250 28/18 A3004 RMK AO2 SLP163 T02780178
KSTL 222051Z 35008KT 10SM SCT040 SCT250 28/17 A3003 RMK AO2 SLP157 T02830172 56014
KSTL 222151Z 34006KT 10SM FEW040 SCT250 28/18 A3002 RMK AO2 SLP155 T02830178
KSTL 222251Z 33006KT 10SM FEW040 SCT250 28/17 A3001 RMK AO2 SLP151 T02830172
KSTL 222351Z 01005KT 10SM FEW040 SCT250 28/17 A3000 RMK AO2 SLP149 T02780172 10289 20267 57008
KSTL 230051Z 05006KT 10SM FEW040 SCT250 27/17 A3001 RMK AO2 SLP153 T02670172
KSTL 230151Z 04005KT 10SM SCT250 26/17 A3002 RMK AO2 SLP156 T02610172
KSTL 230251Z 04004KT 10SM FEW250 25/17 A3005 RMK AO2 SLP165 T02500172 53017



Page loaded:  03:02 UTC  |   08:02 PM Pacific  |   09:02 PM Mountain  |   10:02 PM Central  |   11:02 PM Eastern

 

ADVISORIES

FORECASTS

FORECASTS

OBSERVATIONS

USER TOOLS

ABOUT US